To NAV CANADA Home Page Login to a new session Search on AWWS site Disclaimer Vers la page française équivalente Tips FAQ What's new on the site To the Forecasts and Observations / NOTAM section To "File a Flight Plan" website Publications and other links Update of the User's profile FIC Telephone Numbers My Weather Data Folder Route Weather Data Regional Weather Data Local Weather Data To the Forecasts and Observations / NOTAM section
Request Generated 12/12/2018 at 03:14:40 UTC . Weather information available at that time is displayed.


Save this request

METAR/TAF

WINNIPEG/JAMES ARMSTRONG RICHARDSON INTL/MB    

METAR CYWG 120300Z 18008KT 15SM SKC M07/M09 A2976 RMK FROIN SLP095=
METAR CYWG 120200Z 20007KT 15SM SCT190 M06/M08 A2976 RMK CI4 SLP097=
METAR CYWG 120100Z 19010KT 15SM OVC160 M06/M08 A2977 RMK AS8 SLP099=

TAF CYWG 112338Z 1200/1224 18010KT P6SM FEW010 BKN110 BKN230
FM120600 18005KT 5SM BR SCT004 BKN010
BECMG 1210/1212 18010KT
BECMG 1214/1216 18015KT
FM121800 18015G25KT P6SM SCT010 BKN060 PROB30 1221/1224 P6SM
-FZRA
RMK NXT FCST BY 120600Z=

PORTAGE LA PRAIRIE/SOUTHPORT/MB    

METAR CYPG 120000Z CCA 26008KT 15SM BKN180 M02/M05 A2976 RMK AC6 LAST OBS/NEXT 121200 UTC SLP096=
METAR CYPG 120000Z 26008KT 15SM BKN180 M02/M05 A2976 RMK AC6 SLP096=

TAF AMD CYPG 120056Z 1200/1212 FCST CNCLD DUE END OF FLYING PROGRAM
RMK NXT FCST WILL BE ISSUED AT 121315Z=

BRANDON MUNICIPALITY/MB    

METAR CYBR 120300Z 28009KT 15SM OVC009 M01/M03 A2972 RMK ST8 SLP092=
METAR CYBR 120200Z 28007KT 15SM OVC009 M01/M03 A2975 RMK ST8 SLP102=
METAR CYBR 120100Z 30011KT 10SM OVC008 M02/M03 A2976 RMK ST8 SLP109=

TAF CYBR 112338Z 1200/1212 28010KT P6SM BKN010 TEMPO 1200/1203 BKN008
FM120300 24005KT P6SM SCT008 TEMPO 1203/1210 BKN008
RMK NXT FCST BY 120600Z=

DAUPHIN (LT. COL W.G.(BILLY) BARKER, VC)/MB    (show WxCam)

METAR CYDN 120300Z AUTO 27007KT 9SM CLR M06/M07 A2969 RMK SLP073=
METAR CYDN 120200Z AUTO 25011KT 9SM CLR M03/M04 A2970 RMK SLP076=
METAR CYDN 120100Z AUTO 25011KT 9SM CLR M04/M05 A2972 RMK SLP084=

TAF CYDN 112338Z 1200/1212 26015KT P6SM SCT010
FM120200 24010KT P6SM SCT008 TEMPO 1202/1210 BKN008
BECMG 1204/1206 19008KT
RMK FCST BASED ON AUTO OBS. NXT FCST BY 120600Z=

YORKTON MUNICIPALITY/SK    (show WxCam)

METAR CYQV 120300Z AUTO 18008KT 3/4SM BR VV003 M03/M04 A2963 RMK ICG SLP066=
METAR CYQV 120200Z AUTO 20010G15KT 3/4SM BR VV003 M02/M02 A2966 RMK ICG SLP075=
SPECI CYQV 120145Z AUTO 20009KT 5/8SM BR VV003 M02/M02 A2967 RMK ICG SLP078=
SPECI CYQV 120106Z AUTO 19008KT 1/4SM FZFG VV002 M03/M03 A2968 RMK ICG PRESFR SLP083=
METAR CYQV 120100Z AUTO 19007KT 1/4SM +SN VV002 M03/M03 A2969 RMK ICG SLP086=

TAF AMD CYQV 120128Z 1201/1206 20008KT 5SM BR SCT002 TEMPO 1201/1204
1/4SM FZFG VV002
FM120400 18012KT P6SM BKN010 TEMPO 1204/1206 3SM BR BKN007
RMK FCST BASED ON AUTO OBS. NXT FCST WILL BE ISSUED AT 121145Z=

SASKATOON/JOHN G. DIEFENBAKER INTL/SK    

METAR CYXE 120300Z 17014KT 15SM BKN250 M03/M07 A2944 RMK CI7 SLP004=
METAR CYXE 120200Z 16015KT 15SM FEW130 BKN250 M03/M07 A2948 RMK AC1CI6 SLP017=
METAR CYXE 120100Z 16015KT 15SM SCT120 BKN240 M03/M07 A2951 RMK AS3CI2 PRESFR SLP024=

TAF CYXE 112338Z 1200/1224 18015KT P6SM FEW120 SCT220
FM120900 20010KT P6SM SCT060 BKN120
FM121500 31010KT P6SM BKN060
BECMG 1216/1218 31015G25KT
RMK NXT FCST BY 120600Z=


Your time UTC time
Weather data provided by Environment Canada and NAV CANADA